createdAt,value
2023-02-14T00:00:39.110Z,2.74
2023-02-14T00:01:39.360Z,3.39
2023-02-14T00:02:39.686Z,2.76
2023-02-14T00:03:39.856Z,2.15
2023-02-14T00:04:40.155Z,2.18
2023-02-14T00:05:40.382Z,2.42
2023-02-14T00:06:40.621Z,1.77
2023-02-14T00:07:40.878Z,2.11
2023-02-14T00:08:41.271Z,1.82
2023-02-14T00:09:41.377Z,1.91
2023-02-14T00:10:41.647Z,2.20
2023-02-14T00:11:41.901Z,1.69
2023-02-14T00:12:42.186Z,2.05
2023-02-14T00:13:42.442Z,2.63
2023-02-14T00:14:42.695Z,2.38
2023-02-14T00:15:43.002Z,2.51
2023-02-14T00:16:43.207Z,2.50
2023-02-14T00:17:43.362Z,2.71
2023-02-14T00:18:43.662Z,3.25
2023-02-14T00:19:43.904Z,3.13
2023-02-14T00:20:44.115Z,2.89
2023-02-14T00:21:44.256Z,3.22
2023-02-14T00:22:44.471Z,2.97
2023-02-14T00:23:44.674Z,2.96
2023-02-14T00:24:44.873Z,3.27
2023-02-14T00:25:45.068Z,3.81
2023-02-14T00:26:45.250Z,3.16
2023-02-14T00:27:45.435Z,3.01
2023-02-14T00:28:45.632Z,2.24
2023-02-14T00:29:45.821Z,2.36
2023-02-14T00:30:46.034Z,2.39
2023-02-14T00:31:46.299Z,2.35
2023-02-14T00:32:46.425Z,3.23
2023-02-14T00:33:46.616Z,2.74
2023-02-14T00:34:46.797Z,2.16
2023-02-14T00:35:46.975Z,2.77
2023-02-14T00:36:47.175Z,2.50
2023-02-14T00:37:47.355Z,2.27
2023-02-14T00:38:47.539Z,1.85
2023-02-14T00:39:47.728Z,1.75
2023-02-14T00:40:47.901Z,2.12
2023-02-14T00:41:48.124Z,1.77
2023-02-14T00:42:48.368Z,17.62
2023-02-14T00:43:48.632Z,17.85
2023-02-14T00:44:48.873Z,5.78
2023-02-14T00:45:49.178Z,2.12
2023-02-14T00:46:49.393Z,2.14
2023-02-14T00:47:49.627Z,2.28
2023-02-14T00:48:49.891Z,1.72
2023-02-14T00:49:50.116Z,1.55
2023-02-14T00:50:50.260Z,1.57
2023-02-14T00:51:50.550Z,1.75
2023-02-14T00:52:50.669Z,1.66
2023-02-14T00:53:50.876Z,1.99
2023-02-14T00:54:51.135Z,2.37
2023-02-14T00:55:51.309Z,2.47
2023-02-14T00:56:51.457Z,2.20
2023-02-14T00:57:51.613Z,1.72
2023-02-14T00:58:51.758Z,1.49
2023-02-14T00:59:51.911Z,1.86
2023-02-14T01:00:52.030Z,2.40
2023-02-14T01:01:52.166Z,1.71
2023-02-14T01:02:52.315Z,2.10
2023-02-14T01:03:52.393Z,1.33
2023-02-14T01:04:52.543Z,1.94
2023-02-14T01:05:52.664Z,1.77
2023-02-14T01:06:52.794Z,1.54
2023-02-14T01:07:52.941Z,1.90
2023-02-14T01:08:53.091Z,1.78
2023-02-14T01:09:53.216Z,1.62
2023-02-14T01:10:53.412Z,1.75
2023-02-14T01:11:53.534Z,1.78
2023-02-14T01:12:53.661Z,2.17
2023-02-14T01:13:53.798Z,2.33
2023-02-14T01:14:53.904Z,2.14
2023-02-14T01:15:54.031Z,1.80
2023-02-14T01:16:54.325Z,2.29
2023-02-14T01:17:54.324Z,2.14
2023-02-14T01:18:54.462Z,1.63
2023-02-14T01:19:54.598Z,1.94
2023-02-14T01:20:54.739Z,1.78
2023-02-14T01:21:54.877Z,2.24
2023-02-14T01:22:55.006Z,2.20
2023-02-14T01:23:55.130Z,1.90
2023-02-14T01:24:55.237Z,1.68
2023-02-14T01:25:55.363Z,1.75
2023-02-14T01:26:55.464Z,1.43
2023-02-14T01:27:55.586Z,1.43
2023-02-14T01:28:55.714Z,1.31
2023-02-14T01:29:55.864Z,1.51
2023-02-14T01:30:55.977Z,1.74
2023-02-14T01:31:56.165Z,1.42
2023-02-14T01:32:56.188Z,1.36
2023-02-14T01:33:56.309Z,1.45
2023-02-14T01:34:56.430Z,1.81
2023-02-14T01:35:56.584Z,2.49
2023-02-14T01:36:56.757Z,2.73
2023-02-14T01:37:56.911Z,2.84
2023-02-14T01:38:57.076Z,2.55
2023-02-14T01:39:57.249Z,2.03
2023-02-14T01:40:57.656Z,2.28
2023-02-14T01:41:57.567Z,2.19
2023-02-14T01:42:57.728Z,2.04
2023-02-14T01:43:57.873Z,1.91
2023-02-14T01:44:58.052Z,2.00
2023-02-14T01:45:58.250Z,1.92
2023-02-14T01:46:58.350Z,2.10
2023-02-14T01:47:58.492Z,2.27
2023-02-14T01:48:58.606Z,2.25
2023-02-14T01:49:58.721Z,2.23
2023-02-14T01:50:59.168Z,2.41
2023-02-14T01:51:58.983Z,2.33
2023-02-14T01:52:59.132Z,2.01
2023-02-14T01:53:59.241Z,2.26
2023-02-14T01:54:59.420Z,2.63
2023-02-14T01:55:59.592Z,2.30
2023-02-14T01:56:59.753Z,2.51
2023-02-14T01:57:59.926Z,2.02
2023-02-14T01:59:00.143Z,2.23
2023-02-14T02:00:00.261Z,2.42
2023-02-14T02:01:00.904Z,2.28
2023-02-14T02:02:00.682Z,1.90
2023-02-14T02:03:00.851Z,1.71
2023-02-14T02:04:01.028Z,1.30
2023-02-14T02:05:01.209Z,1.91
2023-02-14T02:06:01.394Z,1.91
2023-02-14T02:07:01.600Z,1.63
2023-02-14T02:08:01.796Z,2.11
2023-02-14T02:09:01.975Z,2.40
2023-02-14T02:10:02.121Z,1.87
2023-02-14T02:11:02.321Z,1.58
2023-02-14T02:12:02.396Z,1.59
2023-02-14T02:13:02.527Z,1.34
2023-02-14T02:14:02.640Z,1.61
2023-02-14T02:15:02.753Z,1.90
2023-02-14T02:16:02.889Z,1.79
2023-02-14T02:17:03.029Z,1.88
2023-02-14T02:18:03.187Z,1.88
2023-02-14T02:19:03.309Z,1.35
2023-02-14T02:20:03.416Z,1.63
2023-02-14T02:21:03.556Z,2.44
2023-02-14T02:22:03.845Z,2.06
2023-02-14T02:23:04.015Z,1.84
2023-02-14T02:24:04.176Z,1.95
2023-02-14T02:25:04.350Z,1.40
2023-02-14T02:26:04.506Z,1.50
2023-02-14T02:27:04.665Z,1.28
2023-02-14T02:28:04.806Z,1.40
2023-02-14T02:29:04.958Z,1.66
2023-02-14T02:30:05.152Z,1.41
2023-02-14T02:31:05.367Z,1.51
2023-02-14T02:32:05.633Z,1.47
2023-02-14T02:33:05.653Z,1.53
2023-02-14T02:34:05.883Z,1.55
2023-02-14T02:35:06.018Z,2.25
2023-02-14T02:36:06.138Z,1.73
2023-02-14T02:37:06.274Z,1.22
2023-02-14T02:38:06.466Z,1.51
2023-02-14T02:39:06.619Z,1.88
2023-02-14T02:40:06.782Z,2.84
2023-02-14T02:41:06.950Z,4.36
2023-02-14T02:42:07.161Z,3.12
2023-02-14T02:43:07.294Z,3.76
2023-02-14T02:44:07.518Z,3.07
2023-02-14T02:45:07.694Z,3.84
2023-02-14T02:46:07.885Z,3.18
2023-02-14T02:47:08.023Z,3.17
2023-02-14T02:48:08.208Z,2.96
2023-02-14T03:32:15.341Z,1.08
2023-02-14T03:33:15.330Z,0.73
2023-02-14T03:34:15.453Z,1.43
2023-02-14T03:35:15.551Z,1.23
2023-02-14T03:36:15.663Z,0.99
2023-02-14T03:37:15.782Z,0.91
2023-02-14T03:38:15.903Z,0.80
2023-02-14T03:39:16.077Z,0.79
2023-02-14T03:40:16.278Z,1.24
2023-02-14T03:41:16.490Z,1.27
2023-02-14T03:42:16.644Z,1.50
2023-02-14T03:43:16.783Z,1.67
2023-02-14T03:44:16.933Z,1.49
2023-02-14T03:45:18.057Z,1.16
2023-02-14T03:46:17.232Z,1.06
2023-02-14T03:47:17.348Z,1.31
2023-02-14T03:48:17.396Z,0.99
2023-02-14T03:49:17.530Z,0.97
2023-02-14T03:50:17.616Z,1.15
2023-02-14T04:45:25.249Z,1.27
2023-02-14T04:46:25.466Z,1.79
2023-02-14T04:47:25.588Z,1.72
2023-02-14T04:48:25.773Z,2.10
2023-02-14T04:49:25.969Z,2.15
2023-02-14T04:50:26.235Z,2.04
2023-02-14T04:51:27.660Z,2.24
2023-02-14T04:52:26.525Z,2.29
2023-02-14T04:53:26.690Z,2.10
2023-02-14T04:54:26.868Z,1.38
2023-02-14T04:55:27.045Z,1.23
2023-02-14T04:56:27.229Z,1.18
2023-02-14T04:57:27.436Z,1.25
2023-02-14T04:58:27.623Z,1.27
2023-02-14T04:59:27.823Z,1.71
2023-02-14T05:00:28.063Z,1.53
2023-02-14T05:01:28.228Z,1.70
2023-02-14T05:02:28.390Z,1.95
2023-02-14T05:40:35.141Z,2.06
2023-02-14T05:42:35.484Z,2.02
2023-02-14T05:54:37.366Z,2.69
2023-02-14T05:55:37.534Z,3.86
2023-02-14T05:56:37.732Z,4.50
2023-02-14T05:57:37.923Z,3.33
2023-02-14T05:58:38.089Z,4.31
2023-02-14T05:59:38.290Z,3.72
2023-02-14T06:00:40.975Z,3.23
2023-02-14T06:01:38.681Z,2.81
2023-02-14T06:02:38.881Z,2.17
2023-02-14T06:03:39.034Z,2.53
2023-02-14T06:04:39.343Z,2.38
2023-02-14T06:05:39.341Z,2.45
2023-02-14T06:06:39.495Z,2.78
2023-02-14T06:07:39.646Z,2.37
2023-02-14T06:08:39.824Z,2.07
2023-02-14T06:09:39.953Z,2.54
2023-02-14T06:10:40.089Z,2.43
2023-02-14T06:11:40.237Z,2.77
2023-02-14T06:12:40.378Z,2.44
2023-02-14T06:13:40.501Z,2.87
2023-02-14T06:14:40.638Z,2.59
2023-02-14T06:15:40.782Z,2.81
2023-02-14T06:16:40.962Z,2.68
2023-02-14T06:17:41.071Z,4.10
2023-02-14T06:18:41.205Z,3.67
2023-02-14T06:19:41.336Z,3.14
2023-02-14T06:20:41.483Z,2.52
2023-02-14T06:21:41.623Z,2.61
2023-02-14T06:22:41.739Z,2.68
2023-02-14T06:23:41.868Z,2.16
2023-02-14T06:24:41.979Z,1.84
2023-02-14T06:25:42.093Z,2.52
2023-02-14T06:26:42.204Z,2.39
2023-02-14T06:27:42.316Z,2.96
2023-02-14T06:28:42.434Z,3.23
2023-02-14T06:29:42.543Z,4.11
2023-02-14T06:30:42.865Z,3.86
2023-02-14T06:31:42.841Z,4.99
2023-02-14T07:00:47.362Z,3.82
2023-02-14T07:01:47.552Z,3.48
2023-02-14T07:02:47.858Z,4.11
2023-02-14T07:03:47.877Z,4.75
2023-02-14T07:04:48.025Z,4.72
2023-02-14T07:05:48.212Z,2.68
2023-02-14T07:06:48.372Z,2.27
2023-02-14T07:07:48.547Z,2.29
2023-02-14T07:08:48.721Z,2.07
2023-02-14T07:09:48.873Z,1.85
2023-02-14T07:10:48.998Z,2.40
2023-02-14T07:11:49.130Z,3.43
2023-02-14T07:12:49.327Z,1.90
2023-02-14T07:13:49.720Z,1.92
2023-02-14T07:14:49.773Z,2.05
2023-02-14T07:15:49.972Z,1.93
2023-02-14T07:16:50.038Z,2.27
2023-02-14T07:18:50.286Z,1.81
2023-02-14T07:19:50.462Z,1.73
2023-02-14T07:20:50.666Z,1.75
2023-02-14T07:21:50.771Z,1.41
2023-02-14T07:22:50.906Z,1.45
2023-02-14T07:23:51.038Z,2.27
2023-02-14T07:24:51.163Z,2.32
2023-02-14T07:25:51.299Z,2.21
2023-02-14T07:26:51.473Z,2.08
2023-02-14T08:03:57.394Z,2.39
2023-02-14T08:04:57.689Z,3.06
2023-02-14T08:05:57.723Z,2.30
2023-02-14T08:06:57.870Z,1.95
2023-02-14T08:07:57.976Z,1.91
2023-02-14T08:08:58.134Z,1.93
2023-02-14T09:09:08.109Z,1.97
2023-02-14T09:10:07.479Z,3.79
2023-02-14T09:11:07.689Z,2.56
2023-02-14T09:12:07.838Z,2.10
2023-02-14T09:13:07.967Z,2.05
2023-02-14T09:14:08.155Z,2.10
2023-02-14T09:15:08.300Z,1.89
2023-02-14T09:16:08.495Z,1.78
2023-02-14T09:17:08.519Z,1.59
2023-02-14T09:18:08.634Z,1.49
2023-02-14T10:51:17.276Z,1.27
2023-02-14T10:52:17.338Z,1.35
2023-02-14T10:53:17.407Z,1.05
2023-02-14T10:54:17.471Z,1.58
2023-02-14T10:55:31.494Z,1.24
2023-02-14T10:56:18.600Z,1.45
2023-02-14T10:57:17.609Z,1.38
2023-02-14T10:58:17.644Z,1.33
2023-02-14T10:59:17.672Z,1.30
2023-02-14T11:00:17.715Z,1.35
2023-02-14T11:01:17.835Z,1.45
2023-02-14T11:02:17.773Z,1.18
2023-02-14T11:03:17.841Z,1.13
2023-02-14T11:04:17.837Z,1.42
2023-02-14T11:05:17.858Z,1.17
2023-02-14T11:06:17.864Z,1.36
2023-02-14T11:07:17.929Z,2.86
2023-02-14T11:08:17.958Z,2.03
2023-02-14T11:09:18.015Z,1.44
2023-02-14T11:10:18.131Z,1.70
2023-02-14T11:11:18.104Z,1.04
2023-02-14T11:12:18.096Z,1.48
2023-02-14T11:13:18.195Z,1.09
2023-02-14T11:14:18.336Z,1.55
2023-02-14T11:15:18.267Z,1.20
2023-02-14T11:16:18.346Z,1.21
2023-02-14T11:17:18.390Z,1.12
2023-02-14T11:18:18.459Z,1.36
2023-02-14T11:19:18.522Z,1.34
2023-02-14T11:20:18.599Z,1.14
2023-02-14T11:21:18.720Z,1.97
2023-02-14T11:22:18.683Z,1.43
2023-02-14T11:23:18.704Z,1.11
2023-02-14T11:24:18.751Z,1.34
2023-02-14T11:25:18.761Z,1.69
2023-02-14T11:26:18.823Z,1.66
2023-02-14T11:27:18.907Z,1.22
2023-02-14T11:28:18.942Z,1.40
2023-02-14T11:29:19.015Z,1.57
2023-02-14T11:30:19.107Z,1.50
2023-02-14T11:31:19.216Z,1.48
2023-02-14T11:32:19.213Z,1.51
2023-02-14T11:33:19.274Z,1.84
2023-02-14T11:34:19.338Z,1.61
2023-02-14T11:35:19.390Z,2.42
2023-02-14T11:36:19.461Z,1.90
2023-02-14T11:37:20.001Z,1.38
2023-02-14T11:38:19.595Z,2.03
2023-02-14T11:39:21.778Z,2.72
2023-02-14T11:40:19.740Z,2.59
2023-02-14T11:41:19.793Z,1.78
2023-02-14T11:42:19.871Z,1.50
2023-02-14T11:43:19.948Z,1.27
2023-02-14T11:44:19.936Z,1.69
2023-02-14T11:45:19.959Z,1.50
2023-02-14T11:46:20.007Z,2.71
2023-02-14T11:47:20.026Z,3.29
2023-02-14T11:48:31.511Z,2.58
2023-02-14T11:49:21.055Z,2.15
2023-02-14T11:50:20.036Z,1.53
2023-02-14T11:51:20.039Z,1.70
2023-02-14T11:52:20.065Z,1.45
2023-02-14T11:53:20.034Z,1.44
2023-02-14T11:54:20.020Z,1.26
2023-02-14T11:55:19.998Z,1.12
2023-02-14T11:56:20.004Z,1.18
2023-02-14T11:57:19.986Z,1.17
2023-02-14T11:58:19.957Z,1.38
2023-02-14T11:59:19.965Z,1.30
2023-02-14T12:00:20.044Z,1.11
2023-02-14T12:01:19.940Z,1.30
2023-02-14T12:02:19.964Z,1.54
2023-02-14T12:03:19.938Z,1.34
2023-02-14T12:04:19.923Z,1.31
2023-02-14T12:05:19.930Z,1.00
2023-02-14T12:06:19.908Z,0.91
2023-02-14T12:07:19.939Z,0.92
2023-02-14T12:08:19.969Z,1.08
2023-02-14T12:09:20.025Z,1.00
2023-02-14T12:10:20.084Z,1.42
2023-02-14T12:11:20.118Z,1.19
2023-02-14T12:12:20.127Z,1.50
2023-02-14T12:13:20.108Z,1.09
2023-02-14T12:14:20.120Z,0.93
2023-02-14T12:15:20.168Z,1.47
2023-02-14T12:16:20.190Z,1.21
2023-02-14T12:17:20.233Z,0.99
2023-02-14T12:18:20.263Z,0.93
2023-02-14T12:19:20.272Z,0.67
2023-02-14T12:20:20.261Z,1.03
2023-02-14T12:21:20.262Z,0.97
2023-02-14T12:22:20.246Z,0.86
2023-02-14T12:23:20.243Z,1.24
2023-02-14T12:24:20.228Z,0.96
2023-02-14T12:25:20.238Z,0.97
2023-02-14T12:26:20.275Z,1.06
2023-02-14T12:27:20.312Z,1.43
2023-02-14T12:28:20.360Z,1.08
2023-02-14T12:29:20.399Z,0.89
2023-02-14T12:30:20.402Z,0.97
2023-02-14T12:31:20.469Z,0.96
2023-02-14T12:32:20.410Z,0.99
2023-02-14T12:33:20.475Z,0.84
2023-02-14T12:34:20.472Z,0.94
2023-02-14T12:35:20.460Z,1.19
2023-02-14T12:36:20.473Z,1.00
2023-02-14T12:37:20.465Z,0.92
2023-02-14T12:38:20.454Z,0.84
2023-02-14T12:39:20.425Z,1.15
2023-02-14T12:40:20.433Z,0.84
2023-02-14T12:41:20.403Z,0.96
2023-02-14T12:42:20.394Z,0.76
2023-02-14T12:43:20.385Z,0.86
2023-02-14T12:44:20.353Z,1.06
2023-02-14T12:45:20.321Z,0.97
2023-02-14T12:46:20.330Z,0.65
2023-02-14T12:47:20.276Z,1.15
2023-02-14T12:48:20.244Z,0.69
2023-02-14T12:49:20.215Z,1.04
2023-02-14T12:50:20.181Z,1.39
2023-02-14T12:51:20.192Z,0.68
2023-02-14T12:52:20.355Z,0.75
2023-02-14T12:53:20.520Z,0.99
2023-02-14T12:54:20.674Z,0.79
2023-02-14T12:55:20.834Z,0.91
2023-02-14T12:56:20.996Z,0.68
2023-02-14T12:57:21.129Z,1.03
2023-02-14T12:58:21.285Z,0.95
2023-02-14T12:59:21.461Z,0.92
2023-02-14T13:00:21.604Z,1.20
2023-02-14T13:01:28.545Z,1.14
2023-02-14T13:02:22.709Z,1.29
2023-02-14T13:03:21.634Z,1.22
2023-02-14T13:04:21.597Z,0.99
2023-02-14T13:05:21.587Z,0.82
2023-02-14T13:06:21.488Z,0.64
2023-02-14T13:07:21.417Z,0.87
2023-02-14T13:08:21.717Z,0.91
2023-02-14T13:09:21.351Z,1.04
2023-02-14T13:10:21.285Z,1.03
2023-02-14T13:11:21.219Z,0.93
2023-02-14T13:12:21.164Z,0.73
2023-02-14T13:13:21.107Z,1.04
2023-02-14T13:14:21.042Z,0.86
2023-02-14T13:15:21.019Z,0.99
2023-02-14T13:16:21.040Z,0.82
2023-02-14T13:17:20.983Z,0.74
2023-02-14T13:18:21.016Z,0.84
2023-02-14T13:19:21.128Z,0.83
2023-02-14T13:20:21.237Z,1.02
2023-02-14T13:21:21.407Z,0.71
2023-02-14T13:22:21.483Z,1.05
2023-02-14T13:23:21.644Z,1.14
2023-02-14T13:24:21.827Z,0.86
2023-02-14T13:25:21.986Z,1.18
2023-02-14T13:26:22.152Z,0.90
2023-02-14T13:27:22.323Z,1.17
2023-02-14T13:28:22.094Z,1.31
2023-02-14T13:29:22.085Z,0.92
2023-02-14T13:30:22.050Z,0.83
2023-02-14T13:31:22.120Z,0.91
2023-02-14T13:32:21.964Z,1.04
2023-02-14T13:33:21.934Z,0.83
2023-02-14T13:34:21.947Z,0.57
2023-02-14T13:35:21.958Z,0.79
2023-02-14T13:36:21.966Z,1.27
2023-02-14T13:37:21.920Z,1.10
2023-02-14T13:38:21.863Z,0.59
2023-02-14T13:39:21.848Z,0.74
2023-02-14T13:40:22.013Z,0.98
2023-02-14T13:41:22.216Z,1.27
2023-02-14T13:42:22.201Z,0.90
2023-02-14T13:43:22.173Z,0.86
2023-02-14T13:44:22.172Z,1.02
2023-02-14T13:45:22.103Z,0.87
2023-02-14T13:46:22.215Z,1.16
2023-02-14T13:47:22.042Z,1.19
2023-02-14T13:48:21.988Z,0.97
2023-02-14T13:49:21.959Z,0.92
2023-02-14T13:50:21.938Z,0.84
2023-02-14T13:51:21.901Z,1.05
2023-02-14T13:52:21.845Z,0.63
2023-02-14T13:53:21.813Z,0.75
2023-02-14T13:54:21.812Z,0.82
2023-02-14T13:55:21.828Z,1.87
2023-02-14T13:56:21.839Z,0.69
2023-02-14T13:57:21.848Z,0.90
2023-02-14T13:58:21.874Z,0.75
2023-02-14T13:59:21.870Z,0.97
2023-02-14T14:00:21.865Z,0.90
2023-02-14T14:01:21.856Z,1.27
2023-02-14T14:02:21.824Z,1.11
2023-02-14T14:03:21.989Z,1.81
2023-02-14T14:04:22.196Z,1.48
2023-02-14T14:05:22.384Z,1.40
2023-02-14T14:06:22.559Z,1.34
2023-02-14T14:07:22.759Z,1.27
2023-02-14T14:53:27.465Z,1.43
2023-02-14T14:54:27.677Z,1.61
2023-02-14T14:55:27.797Z,1.90
2023-02-14T14:56:27.954Z,1.79
2023-02-14T14:57:28.117Z,1.73
2023-02-14T14:58:28.269Z,1.30
2023-02-14T14:59:28.423Z,1.80
2023-02-14T15:00:28.591Z,1.97
2023-02-14T15:01:28.748Z,2.21
2023-02-14T15:48:37.447Z,3.82
2023-02-14T15:49:37.603Z,3.67
2023-02-14T15:50:37.806Z,4.23
2023-02-14T15:51:37.925Z,3.72
2023-02-14T15:52:38.094Z,5.57
2023-02-14T15:53:38.283Z,5.67
2023-02-14T15:54:38.537Z,5.75
2023-02-14T15:55:38.614Z,6.50
2023-02-14T15:56:38.774Z,6.38
2023-02-14T15:57:38.999Z,6.79
2023-02-14T15:58:39.099Z,6.52
2023-02-14T15:59:39.284Z,6.34
2023-02-14T16:00:39.445Z,6.16
2023-02-14T16:01:39.672Z,5.46
2023-02-14T16:02:39.840Z,5.38
2023-02-14T16:03:39.967Z,5.29
2023-02-14T16:04:40.126Z,5.95
2023-02-14T17:38:47.333Z,3.25
2023-02-14T17:39:47.434Z,3.44
2023-02-14T17:40:47.557Z,3.07
2023-02-14T17:41:47.687Z,3.55
2023-02-14T17:42:47.770Z,3.96
2023-02-14T17:43:47.878Z,3.95
2023-02-14T17:44:47.981Z,5.09
2023-02-14T17:45:48.090Z,4.41
2023-02-14T17:46:48.236Z,4.49
2023-02-14T17:47:48.251Z,4.82
2023-02-14T17:48:48.316Z,4.40
2023-02-14T17:49:48.410Z,4.55
2023-02-14T17:50:48.513Z,4.66
2023-02-14T17:51:48.578Z,5.34
2023-02-14T17:52:48.665Z,5.84
2023-02-14T17:53:48.720Z,7.17
2023-02-14T17:54:48.780Z,6.75
2023-02-14T17:55:48.860Z,6.60
2023-02-14T17:56:48.921Z,6.59
2023-02-14T17:57:48.978Z,6.78
2023-02-14T17:58:49.036Z,6.73
2023-02-14T17:59:49.097Z,6.25
2023-02-14T18:00:49.159Z,5.39
2023-02-14T18:01:49.286Z,6.46
2023-02-14T18:02:49.324Z,6.70
2023-02-14T18:03:49.347Z,6.35
2023-02-14T18:04:49.410Z,5.62
2023-02-14T18:05:49.470Z,5.30
2023-02-14T18:06:49.556Z,5.68
2023-02-14T18:07:49.618Z,5.58
2023-02-14T18:08:49.700Z,5.94
2023-02-14T18:09:49.764Z,6.38
2023-02-14T18:10:49.849Z,6.71
2023-02-14T18:11:49.940Z,6.99
2023-02-14T18:12:50.001Z,6.87
2023-02-14T18:13:50.077Z,7.18
2023-02-14T18:14:50.151Z,6.64
2023-02-14T18:15:50.269Z,7.01
2023-02-14T18:17:50.379Z,6.34
2023-02-14T19:30:57.287Z,7.06
2023-02-14T19:31:57.415Z,5.27
2023-02-14T19:32:57.514Z,6.32
2023-02-14T19:33:57.667Z,7.82
2023-02-14T19:34:57.758Z,6.80
2023-02-14T19:35:57.876Z,7.83
2023-02-14T19:36:58.006Z,6.53
2023-02-14T19:37:58.130Z,6.69
2023-02-14T19:38:58.244Z,5.90
2023-02-14T19:39:58.409Z,5.49
2023-02-14T19:40:58.674Z,5.36
2023-02-14T19:41:58.586Z,5.14
2023-02-14T19:42:58.707Z,5.99
2023-02-14T20:46:07.542Z,7.30
2023-02-14T20:47:07.651Z,8.08
2023-02-14T20:48:07.929Z,7.38
2023-02-14T20:49:08.780Z,6.71
2023-02-14T20:50:08.246Z,7.83
2023-02-14T20:51:08.422Z,7.29
2023-02-14T20:52:08.646Z,7.76
2023-02-14T20:53:08.829Z,8.26
2023-02-14T20:54:08.918Z,7.53
2023-02-14T20:55:09.048Z,8.10
2023-02-14T20:56:09.162Z,6.89
2023-02-14T20:57:09.404Z,5.71
2023-02-14T20:58:09.480Z,5.42
2023-02-14T20:59:09.632Z,6.13
2023-02-14T21:00:09.774Z,7.99
2023-02-14T21:01:10.059Z,7.39
2023-02-14T21:02:10.049Z,6.48
2023-02-14T21:03:10.217Z,7.54
2023-02-14T21:04:10.377Z,6.74
2023-02-14T21:05:10.495Z,6.63
2023-02-14T21:06:10.640Z,7.29
2023-02-14T21:07:10.844Z,8.24
2023-02-14T21:08:10.972Z,7.44
2023-02-14T21:09:11.098Z,7.55
2023-02-14T21:10:11.745Z,7.77
2023-02-14T21:11:11.379Z,7.56
2023-02-14T21:12:11.533Z,6.04
2023-02-14T21:13:11.676Z,6.01
2023-02-14T21:14:11.841Z,5.74
2023-02-14T21:15:12.001Z,6.73
2023-02-14T21:16:12.123Z,7.26
2023-02-14T21:17:12.283Z,7.14
2023-02-14T21:18:12.373Z,8.12
2023-02-14T21:19:13.245Z,7.99
2023-02-14T21:20:12.683Z,8.81
2023-02-14T21:21:12.835Z,13.74
2023-02-14T21:22:12.926Z,13.82
2023-02-14T21:23:13.047Z,10.60
2023-02-14T21:24:13.238Z,9.07
2023-02-14T21:25:13.424Z,8.46
2023-02-14T21:26:13.633Z,7.92
2023-02-14T21:27:13.836Z,8.66
2023-02-14T21:28:14.043Z,9.34
2023-02-14T21:29:14.379Z,8.09
2023-02-14T21:30:14.680Z,9.63
2023-02-14T21:31:14.963Z,9.51
2023-02-14T21:32:15.256Z,8.48
2023-02-14T21:33:15.393Z,7.81
2023-02-14T21:34:15.629Z,9.35
2023-02-14T21:35:15.884Z,8.67
2023-02-14T21:36:16.097Z,7.18
2023-02-14T21:37:16.371Z,6.39
2023-02-14T21:38:16.617Z,7.24
2023-02-14T21:39:16.900Z,9.04
2023-02-14T21:40:17.171Z,8.90
2023-02-14T21:41:17.449Z,9.32
2023-02-14T21:42:17.708Z,9.43
2023-02-14T21:43:17.977Z,9.02
2023-02-14T21:44:18.219Z,7.84
2023-02-14T21:45:18.479Z,7.25
2023-02-14T21:46:18.800Z,4.52
2023-02-14T21:47:19.009Z,4.08
2023-02-14T21:48:19.267Z,4.49
2023-02-14T21:49:19.537Z,4.09
2023-02-14T21:50:19.784Z,4.94
2023-02-14T21:51:20.012Z,3.89
2023-02-14T21:52:20.303Z,4.33
2023-02-14T21:53:20.564Z,4.38
2023-02-14T21:54:20.837Z,3.92
2023-02-14T21:55:21.089Z,4.20
2023-02-14T21:56:21.350Z,5.16
2023-02-14T21:57:21.618Z,4.69
2023-02-14T21:58:21.882Z,4.22
2023-02-14T21:59:22.115Z,4.47
2023-02-14T22:00:22.274Z,4.55
2023-02-14T22:01:22.593Z,4.15
2023-02-14T22:02:22.821Z,5.24
2023-02-14T22:03:23.001Z,4.23
2023-02-14T22:04:23.235Z,5.12
2023-02-14T22:05:23.478Z,4.09
2023-02-14T22:06:23.795Z,4.10
2023-02-14T22:07:24.074Z,4.28
2023-02-14T22:08:24.324Z,4.02
2023-02-14T22:09:24.591Z,4.38
2023-02-14T22:10:24.740Z,4.37
2023-02-14T22:11:25.061Z,4.88
2023-02-14T22:12:25.335Z,5.10
2023-02-14T22:13:25.578Z,5.45
2023-02-14T22:14:25.821Z,4.64
2023-02-14T22:15:25.943Z,4.76
2023-02-14T22:16:26.178Z,4.41
2023-02-14T22:17:26.524Z,4.22
2023-02-14T22:20:27.345Z,3.14
2023-02-14T22:21:27.604Z,3.24
2023-02-14T22:22:27.896Z,3.47
2023-02-14T22:23:29.131Z,3.38
2023-02-14T22:24:28.288Z,3.34
2023-02-14T22:25:28.429Z,3.03
2023-02-14T22:26:28.576Z,3.06
2023-02-14T22:27:28.736Z,2.93
2023-02-14T22:28:28.854Z,2.37
2023-02-14T22:29:29.018Z,3.09
2023-02-14T22:30:29.138Z,3.04
2023-02-14T22:31:29.407Z,2.87
2023-02-14T22:32:29.399Z,2.18
2023-02-14T22:33:29.527Z,2.50
2023-02-14T22:34:29.662Z,2.79
2023-02-14T22:35:29.759Z,3.33
2023-02-14T23:16:37.412Z,2.78
2023-02-14T23:17:37.564Z,3.33
2023-02-14T23:18:37.704Z,3.61
2023-02-14T23:19:37.856Z,3.63
2023-02-14T23:20:38.030Z,2.77
2023-02-14T23:21:38.161Z,2.99
